Time;durP1;ratioP1;P1;durP2;ratioP2;P2;SDS_P1;SDS_P2;PMS_P1;PMS_P2;Temp;Humidity;BMP_temperature;BMP_pressure;BME280_temperature;BME280_humidity;BME280_pressure;Samples;Min_cycle;Max_cycle;Signal;HPM_P1;HPM_P2
2022/08/29 00:01:04;;;;;;;0.70;0.70;;;;;;;;;;5132157;27;20205;-58
2022/08/29 00:03:54;;;;;;;0.80;0.80;;;;;;;;;;5141771;27;20695;-58
2022/08/29 00:06:41;;;;;;;0.90;0.90;;;;;;;;;;5130987;27;20225;-58
2022/08/29 00:09:30;;;;;;;0.73;0.73;;;;;;;;;;5137346;27;20280;-58
2022/08/29 00:12:17;;;;;;;1.50;0.67;;;;;;;;;;5130321;27;20566;-59
2022/08/29 00:15:05;;;;;;;0.70;0.70;;;;;;;;;;5140079;27;20209;-59
2022/08/29 00:17:52;;;;;;;0.70;0.70;;;;;;;;;;5132043;27;20259;-59
2022/08/29 00:20:39;;;;;;;0.90;0.90;;;;;;;;;;5139924;27;20667;-58
2022/08/29 00:23:26;;;;;;;0.83;0.80;;;;;;;;;;5133638;27;20640;-58
2022/08/29 00:26:14;;;;;;;0.70;0.70;;;;;;;;;;5133251;27;20198;-58
2022/08/29 00:29:01;;;;;;;0.83;0.83;;;;;;;;;;5139511;27;20204;-58
2022/08/29 00:31:48;;;;;;;0.60;0.60;;;;;;;;;;5140483;27;20236;-59
2022/08/29 00:34:35;;;;;;;0.70;0.70;;;;;;;;;;5138421;27;20207;-59
2022/08/29 00:37:22;;;;;;;0.60;0.60;;;;;;;;;;5134790;27;20208;-58
2022/08/29 00:40:13;;;;;;;0.80;0.80;;;;;;;;;;5140070;27;20219;-58
2022/08/29 00:43:02;;;;;;;0.70;0.70;;;;;;;;;;5127745;27;20362;-58
2022/08/29 00:45:55;;;;;;;0.60;0.60;;;;;;;;;;5137292;27;20205;-59
2022/08/29 00:48:47;;;;;;;0.70;0.63;;;;;;;;;;5132354;27;20214;-58
2022/08/29 00:51:34;;;;;;;0.70;0.70;;;;;;;;;;5138766;27;20221;-59
2022/08/29 00:54:22;;;;;;;0.63;0.63;;;;;;;;;;5128267;27;20209;-59
2022/08/29 00:57:09;;;;;;;0.50;0.50;;;;;;;;;;5132396;27;20673;-59
2022/08/29 00:59:58;;;;;;;0.60;0.60;;;;;;;;;;5135565;27;20353;-59
2022/08/29 01:02:46;;;;;;;0.77;0.50;;;;;;;;;;5138126;27;20249;-58
2022/08/29 01:05:35;;;;;;;0.80;0.80;;;;;;;;;;5130468;27;20220;-58
2022/08/29 01:08:22;;;;;;;0.53;0.53;;;;;;;;;;5132880;27;20767;-59
2022/08/29 01:14:16;;;;;;;0.60;0.60;;;;;;;;;;5135949;27;20203;-58
2022/08/29 01:17:06;;;;;;;0.50;0.50;;;;;;;;;;5133946;27;20604;-59
2022/08/29 01:19:58;;;;;;;0.83;0.63;;;;;;;;;;5140117;27;20205;-59
2022/08/29 01:22:59;;;;;;;0.60;0.60;;;;;;;;;;5132869;27;20642;-59
2022/08/29 01:25:50;;;;;;;0.80;0.80;;;;;;;;;;5133543;27;20212;-58
2022/08/29 01:28:40;;;;;;;0.53;0.53;;;;;;;;;;5138487;27;20314;-59
2022/08/29 01:31:36;;;;;;;0.67;0.67;;;;;;;;;;5132398;27;20693;-58
2022/08/29 01:34:23;;;;;;;0.50;0.50;;;;;;;;;;5134960;27;20204;-58
2022/08/29 01:37:13;;;;;;;1.70;0.77;;;;;;;;;;5131157;27;20204;-59
2022/08/29 01:40:00;;;;;;;0.60;0.60;;;;;;;;;;5133728;27;20212;-59
2022/08/29 01:42:49;;;;;;;0.47;0.47;;;;;;;;;;5131659;27;20569;-59
2022/08/29 01:45:36;;;;;;;0.77;0.63;;;;;;;;;;5138289;27;20208;-60
2022/08/29 01:48:23;;;;;;;0.60;0.60;;;;;;;;;;5134105;27;20211;-58
2022/08/29 01:51:11;;;;;;;0.40;0.40;;;;;;;;;;5131934;27;20215;-59
2022/08/29 01:53:58;;;;;;;0.77;0.77;;;;;;;;;;5135028;27;20198;-59
2022/08/29 01:56:48;;;;;;;0.53;0.53;;;;;;;;;;5136549;27;20244;-59
2022/08/29 01:59:37;;;;;;;0.57;0.57;;;;;;;;;;5133464;27;20196;-59
2022/08/29 02:02:27;;;;;;;0.40;0.40;;;;;;;;;;5139935;27;20222;-59
2022/08/29 02:05:14;;;;;;;0.33;0.33;;;;;;;;;;5135657;27;20228;-58
2022/08/29 02:08:01;;;;;;;0.80;0.50;;;;;;;;;;5138922;27;20320;-59
2022/08/29 02:10:48;;;;;;;0.47;0.47;;;;;;;;;;5135579;27;20208;-59
2022/08/29 02:13:35;;;;;;;0.50;0.50;;;;;;;;;;5138213;27;20253;-58
2022/08/29 02:16:26;;;;;;;0.60;0.60;;;;;;;;;;5137716;27;20243;-65
2022/08/29 02:19:13;;;;;;;0.40;0.40;;;;;;;;;;5141578;27;20778;-59
2022/08/29 02:22:01;;;;;;;0.37;0.37;;;;;;;;;;5133496;27;20577;-58
2022/08/29 02:24:48;;;;;;;0.50;0.50;;;;;;;;;;5136834;27;20241;-59
2022/08/29 02:27:35;;;;;;;0.50;0.50;;;;;;;;;;5131435;27;20281;-59
2022/08/29 02:30:24;;;;;;;0.57;0.30;;;;;;;;;;5136546;27;20686;-59
2022/08/29 02:33:14;;;;;;;0.50;0.50;;;;;;;;;;5135389;27;20767;-58
2022/08/29 02:36:01;;;;;;;0.40;0.40;;;;;;;;;;5133236;27;20205;-58
2022/08/29 02:38:48;;;;;;;0.70;0.70;;;;;;;;;;5136677;27;20703;-59
2022/08/29 02:41:36;;;;;;;1.67;0.40;;;;;;;;;;5138281;27;20989;-60
2022/08/29 02:44:23;;;;;;;0.53;0.53;;;;;;;;;;5141233;27;20201;-59
2022/08/29 02:47:09;;;;;;;0.37;0.37;;;;;;;;;;5136510;27;20611;-59
2022/08/29 02:49:58;;;;;;;0.40;0.40;;;;;;;;;;5139560;27;20301;-59
2022/08/29 02:52:45;;;;;;;0.40;0.40;;;;;;;;;;5140691;27;20574;-58
2022/08/29 02:55:32;;;;;;;0.40;0.40;;;;;;;;;;5134171;27;20291;-58
2022/08/29 02:58:21;;;;;;;1.40;0.60;;;;;;;;;;5130809;27;20215;-58
2022/08/29 03:01:08;;;;;;;0.30;0.30;;;;;;;;;;5135128;27;20200;-58
2022/08/29 03:03:55;;;;;;;0.40;0.40;;;;;;;;;;5138820;27;20353;-59
2022/08/29 03:06:43;;;;;;;2.07;0.40;;;;;;;;;;5134257;27;20228;-58
2022/08/29 03:09:30;;;;;;;0.60;0.50;;;;;;;;;;5134285;27;20208;-59
2022/08/29 03:12:18;;;;;;;0.40;0.40;;;;;;;;;;5132948;27;20304;-59
2022/08/29 03:15:07;;;;;;;0.40;0.40;;;;;;;;;;5136785;27;20677;-59
2022/08/29 03:17:54;;;;;;;0.70;0.57;;;;;;;;;;5131615;27;20578;-59
2022/08/29 03:20:42;;;;;;;0.47;0.47;;;;;;;;;;5133088;27;20227;-59
2022/08/29 03:23:30;;;;;;;0.40;0.40;;;;;;;;;;5136589;27;20199;-58
2022/08/29 03:26:18;;;;;;;0.37;0.33;;;;;;;;;;5134783;27;20293;-58
2022/08/29 03:29:05;;;;;;;0.40;0.40;;;;;;;;;;5136953;27;20207;-59
2022/08/29 03:31:52;;;;;;;0.40;0.40;;;;;;;;;;5133825;27;20699;-58
2022/08/29 03:34:39;;;;;;;0.33;0.33;;;;;;;;;;5138746;27;20201;-59
2022/08/29 03:37:26;;;;;;;0.40;0.40;;;;;;;;;;5130797;27;20565;-59
2022/08/29 03:40:15;;;;;;;0.60;0.60;;;;;;;;;;5140405;27;20205;-59
2022/08/29 03:43:03;;;;;;;0.30;0.30;;;;;;;;;;5132442;27;20212;-59
2022/08/29 03:45:50;;;;;;;0.30;0.30;;;;;;;;;;5144203;27;20660;-60
2022/08/29 03:48:37;;;;;;;0.50;0.50;;;;;;;;;;5135194;27;20225;-58
2022/08/29 03:51:24;;;;;;;0.40;0.40;;;;;;;;;;5135896;27;20207;-59
2022/08/29 03:54:11;;;;;;;0.60;0.40;;;;;;;;;;5137368;27;20215;-59
2022/08/29 03:56:59;;;;;;;0.40;0.40;;;;;;;;;;5137709;27;20208;-58
2022/08/29 03:59:47;;;;;;;0.30;0.30;;;;;;;;;;5135451;27;20235;-58
2022/08/29 04:02:34;;;;;;;0.37;0.37;;;;;;;;;;5136418;27;20228;-58
2022/08/29 04:05:21;;;;;;;0.60;0.40;;;;;;;;;;5133094;27;20764;-58
2022/08/29 04:08:08;;;;;;;0.37;0.37;;;;;;;;;;5138211;27;20241;-58
2022/08/29 04:10:55;;;;;;;0.40;0.40;;;;;;;;;;5131998;27;20218;-59
2022/08/29 04:13:44;;;;;;;0.30;0.30;;;;;;;;;;5137808;27;20307;-59
2022/08/29 04:16:31;;;;;;;0.33;0.33;;;;;;;;;;5133607;27;20202;-59
2022/08/29 04:19:19;;;;;;;0.40;0.40;;;;;;;;;;5130891;27;20212;-58
2022/08/29 04:22:06;;;;;;;0.73;0.40;;;;;;;;;;5134238;27;20204;-58
2022/08/29 04:24:53;;;;;;;0.60;0.60;;;;;;;;;;5135511;27;20329;-58
2022/08/29 04:27:41;;;;;;;2.20;0.40;;;;;;;;;;5136109;27;20239;-58
2022/08/29 04:30:30;;;;;;;0.30;0.30;;;;;;;;;;5133127;27;20232;-58
2022/08/29 04:33:17;;;;;;;0.40;0.40;;;;;;;;;;5131520;27;20258;-58
2022/08/29 04:36:05;;;;;;;0.30;0.30;;;;;;;;;;5128195;27;20581;-58
2022/08/29 04:38:53;;;;;;;0.50;0.50;;;;;;;;;;5130305;27;20211;-59
2022/08/29 04:41:41;;;;;;;0.40;0.40;;;;;;;;;;5130885;27;20211;-59
2022/08/29 04:44:28;;;;;;;0.43;0.40;;;;;;;;;;5140721;27;20678;-58
2022/08/29 04:47:16;;;;;;;0.20;0.20;;;;;;;;;;5137784;27;20212;-59
2022/08/29 04:50:04;;;;;;;0.40;0.40;;;;;;;;;;5130224;27;20220;-58
2022/08/29 04:52:52;;;;;;;0.40;0.40;;;;;;;;;;5129771;27;20221;-59
2022/08/29 04:55:39;;;;;;;0.43;0.37;;;;;;;;;;5141096;27;20221;-59
2022/08/29 04:58:26;;;;;;;0.40;0.40;;;;;;;;;;5131685;27;20665;-59
2022/08/29 05:01:15;;;;;;;0.37;0.37;;;;;;;;;;5140434;27;20284;-58
2022/08/29 05:04:04;;;;;;;0.20;0.20;;;;;;;;;;5129315;27;20337;-59
2022/08/29 05:06:51;;;;;;;0.40;0.40;;;;;;;;;;5143757;27;20692;-59
2022/08/29 05:09:38;;;;;;;1.07;0.40;;;;;;;;;;5130850;27;20680;-58
2022/08/29 05:12:25;;;;;;;0.90;0.40;;;;;;;;;;5135043;27;20628;-58
2022/08/29 05:15:13;;;;;;;0.40;0.40;;;;;;;;;;5131507;27;20207;-59
2022/08/29 05:18:00;;;;;;;0.50;0.50;;;;;;;;;;5139550;27;20280;-58
2022/08/29 05:20:49;;;;;;;0.30;0.30;;;;;;;;;;5134986;27;20295;-58
2022/08/29 05:23:36;;;;;;;0.40;0.40;;;;;;;;;;5139180;27;20247;-58
2022/08/29 05:26:24;;;;;;;0.33;0.33;;;;;;;;;;5132330;27;20213;-58
2022/08/29 05:29:13;;;;;;;0.40;0.40;;;;;;;;;;5132644;27;20292;-58
2022/08/29 05:32:00;;;;;;;0.23;0.23;;;;;;;;;;5137071;27;20194;-59
2022/08/29 05:34:49;;;;;;;0.37;0.37;;;;;;;;;;5136684;27;20206;-59
2022/08/29 05:37:37;;;;;;;0.43;0.43;;;;;;;;;;5137656;27;20286;-59
2022/08/29 05:40:24;;;;;;;0.30;0.30;;;;;;;;;;5136357;27;20574;-58
2022/08/29 05:43:11;;;;;;;0.30;0.30;;;;;;;;;;5131832;27;20199;-58
2022/08/29 05:46:02;;;;;;;0.20;0.20;;;;;;;;;;5139685;27;20215;-58
2022/08/29 05:48:49;;;;;;;0.73;0.33;;;;;;;;;;5137368;27;20400;-58
2022/08/29 05:51:36;;;;;;;0.30;0.30;;;;;;;;;;5134201;27;20260;-58
2022/08/29 05:54:25;;;;;;;0.40;0.40;;;;;;;;;;5135592;27;20231;-58
2022/08/29 05:57:13;;;;;;;0.30;0.30;;;;;;;;;;5127657;28;20205;-59
2022/08/29 06:00:00;;;;;;;0.30;0.30;;;;;;;;;;5134572;27;20657;-58
2022/08/29 06:02:47;;;;;;;0.20;0.20;;;;;;;;;;5132905;27;20246;-58
2022/08/29 06:05:34;;;;;;;0.20;0.20;;;;;;;;;;5131016;27;20423;-58
2022/08/29 06:08:21;;;;;;;0.80;0.43;;;;;;;;;;5129053;27;20237;-58
2022/08/29 06:11:16;;;;;;;0.37;0.37;;;;;;;;;;5135776;27;20713;-64
2022/08/29 06:14:03;;;;;;;1.05;0.40;;;;;;;;;;5128239;28;20366;-58
2022/08/29 06:16:50;;;;;;;0.38;0.38;;;;;;;;;;5138226;27;20203;-60
2022/08/29 06:19:38;;;;;;;0.20;0.20;;;;;;;;;;5134455;27;20207;-58
2022/08/29 06:22:25;;;;;;;0.40;0.40;;;;;;;;;;5133593;27;20196;-59
2022/08/29 06:25:12;;;;;;;1.10;0.35;;;;;;;;;;5128235;27;20204;-58
2022/08/29 06:28:01;;;;;;;0.40;0.40;;;;;;;;;;5141195;27;20664;-59
2022/08/29 06:30:48;;;;;;;0.38;0.38;;;;;;;;;;5130566;27;20250;-58
2022/08/29 06:33:35;;;;;;;0.30;0.30;;;;;;;;;;5134498;27;20315;-58
2022/08/29 06:36:24;;;;;;;0.40;0.40;;;;;;;;;;5132663;27;20571;-58
2022/08/29 06:39:11;;;;;;;0.65;0.30;;;;;;;;;;5135219;27;20289;-58
2022/08/29 06:41:58;;;;;;;0.50;0.50;;;;;;;;;;5131985;27;20661;-59
2022/08/29 06:44:46;;;;;;;0.50;0.50;;;;;;;;;;5132935;27;20223;-59
2022/08/29 06:47:34;;;;;;;0.20;0.20;;;;;;;;;;5133836;27;20201;-58
2022/08/29 06:50:21;;;;;;;0.40;0.40;;;;;;;;;;5135047;27;20205;-58
2022/08/29 06:53:08;;;;;;;0.47;0.38;;;;;;;;;;5137692;27;20582;-58
2022/08/29 06:55:55;;;;;;;0.75;0.40;;;;;;;;;;5135344;27;20807;-58
2022/08/29 06:58:42;;;;;;;0.50;0.50;;;;;;;;;;5132703;27;20205;-58
2022/08/29 07:01:30;;;;;;;0.32;0.32;;;;;;;;;;5136784;27;20275;-58
2022/08/29 07:04:18;;;;;;;0.47;0.38;;;;;;;;;;5135533;27;20268;-58
2022/08/29 07:07:05;;;;;;;0.40;0.40;;;;;;;;;;5141790;27;20252;-59
2022/08/29 07:09:52;;;;;;;0.40;0.40;;;;;;;;;;5132469;27;20690;-58
2022/08/29 07:12:39;;;;;;;0.52;0.30;;;;;;;;;;5131107;27;20209;-59
2022/08/29 07:15:26;;;;;;;0.40;0.40;;;;;;;;;;5131418;27;20204;-59
2022/08/29 07:18:14;;;;;;;0.20;0.20;;;;;;;;;;5132882;27;20216;-59
2022/08/29 07:21:05;;;;;;;0.32;0.32;;;;;;;;;;5132649;27;20193;-58
2022/08/29 07:23:54;;;;;;;0.30;0.30;;;;;;;;;;5134238;27;20201;-59
2022/08/29 07:26:43;;;;;;;0.38;0.32;;;;;;;;;;5131291;27;20219;-59
2022/08/29 07:29:30;;;;;;;0.43;0.40;;;;;;;;;;5128896;27;20193;-57
2022/08/29 07:32:17;;;;;;;0.40;0.40;;;;;;;;;;5136017;27;20199;-58
2022/08/29 07:35:06;;;;;;;0.20;0.20;;;;;;;;;;5129823;27;20745;-57
2022/08/29 07:37:56;;;;;;;0.52;0.40;;;;;;;;;;5139027;27;20330;-58
2022/08/29 07:40:43;;;;;;;0.60;0.30;;;;;;;;;;5132076;27;20620;-58
2022/08/29 07:43:30;;;;;;;0.40;0.40;;;;;;;;;;5135530;27;20200;-58
2022/08/29 07:46:19;;;;;;;0.47;0.47;;;;;;;;;;5128752;27;20201;-58
2022/08/29 07:49:06;;;;;;;0.40;0.30;;;;;;;;;;5131133;27;20283;-58
2022/08/29 07:51:55;;;;;;;0.25;0.25;;;;;;;;;;5131715;27;20683;-58
2022/08/29 07:54:42;;;;;;;0.30;0.30;;;;;;;;;;5136526;27;20242;-58
2022/08/29 07:57:29;;;;;;;0.38;0.38;;;;;;;;;;5135680;27;20204;-58
2022/08/29 08:00:17;;;;;;;0.60;0.50;;;;;;;;;;5130014;27;20220;-58
2022/08/29 08:03:04;;;;;;;0.25;0.25;;;;;;;;;;5128213;27;20197;-58
2022/08/29 08:05:50;;;;;;;0.30;0.30;;;;;;;;;;5135865;27;20229;-58
2022/08/29 08:08:39;;;;;;;0.30;0.30;;;;;;;;;;5130842;27;20270;-58
2022/08/29 08:11:27;;;;;;;0.52;0.52;;;;;;;;;;5139925;27;20284;-58
2022/08/29 08:14:14;;;;;;;0.43;0.43;;;;;;;;;;5130959;27;20711;-58
2022/08/29 08:17:01;;;;;;;0.40;0.40;;;;;;;;;;5130292;27;20205;-58
2022/08/29 08:19:48;;;;;;;0.30;0.30;;;;;;;;;;5131464;27;20212;-57
2022/08/29 08:22:35;;;;;;;0.30;0.30;;;;;;;;;;5133670;27;20204;-57
2022/08/29 08:25:24;;;;;;;0.35;0.35;;;;;;;;;;5131557;27;20197;-57
2022/08/29 08:28:13;;;;;;;0.75;0.40;;;;;;;;;;5135221;27;20220;-57
2022/08/29 08:31:01;;;;;;;0.95;0.35;;;;;;;;;;5128875;27;20400;-59
2022/08/29 08:33:48;;;;;;;0.40;0.40;;;;;;;;;;5133416;27;20716;-57
2022/08/29 08:36:37;;;;;;;0.30;0.30;;;;;;;;;;5134871;27;20189;-57
2022/08/29 08:39:24;;;;;;;0.38;0.38;;;;;;;;;;5130316;27;20293;-57
2022/08/29 08:42:21;;;;;;;0.80;0.30;;;;;;;;;;5134199;27;20805;-57
2022/08/29 08:45:11;;;;;;;0.38;0.38;;;;;;;;;;5130234;27;20193;-57
2022/08/29 08:48:04;;;;;;;0.32;0.32;;;;;;;;;;5138113;27;20341;-56
2022/08/29 08:50:55;;;;;;;0.30;0.30;;;;;;;;;;5132198;27;20728;-57
2022/08/29 08:53:44;;;;;;;0.50;0.50;;;;;;;;;;5140541;27;20594;-59
2022/08/29 08:56:37;;;;;;;0.40;0.40;;;;;;;;;;5129329;27;20616;-60
2022/08/29 08:59:30;;;;;;;0.30;0.30;;;;;;;;;;5132010;27;20242;-59
2022/08/29 09:02:34;;;;;;;0.30;0.30;;;;;;;;;;5132326;27;20196;-58
2022/08/29 09:05:34;;;;;;;0.25;0.25;;;;;;;;;;5139865;27;20220;-59
2022/08/29 09:08:30;;;;;;;0.30;0.30;;;;;;;;;;5131560;27;20256;-58
2022/08/29 09:11:25;;;;;;;0.40;0.40;;;;;;;;;;5133436;27;20222;-58
2022/08/29 09:14:25;;;;;;;0.50;0.50;;;;;;;;;;5129006;27;20225;-58
2022/08/29 09:17:19;;;;;;;0.40;0.38;;;;;;;;;;5134929;27;20584;-58
2022/08/29 09:20:09;;;;;;;1.05;0.47;;;;;;;;;;5131974;27;20197;-58
2022/08/29 09:23:01;;;;;;;0.38;0.38;;;;;;;;;;5126939;27;20208;-58
2022/08/29 09:25:48;;;;;;;0.30;0.30;;;;;;;;;;5132810;27;20192;-58
2022/08/29 09:28:35;;;;;;;0.40;0.40;;;;;;;;;;5133513;27;20207;-58
2022/08/29 09:31:25;;;;;;;0.50;0.50;;;;;;;;;;5132815;27;20548;-58
2022/08/29 09:34:33;;;;;;;0.43;0.43;;;;;;;;;;5129602;27;20292;-58
2022/08/29 09:37:27;;;;;;;0.32;0.32;;;;;;;;;;5130750;27;20551;-59
2022/08/29 09:40:17;;;;;;;0.32;0.32;;;;;;;;;;5127073;27;20201;-59
2022/08/29 09:43:04;;;;;;;0.52;0.52;;;;;;;;;;5128858;27;20319;-58
2022/08/29 09:46:14;;;;;;;0.60;0.60;;;;;;;;;;5128520;27;20201;-58
2022/08/29 09:49:13;;;;;;;0.47;0.47;;;;;;;;;;5138100;27;20551;-59
2022/08/29 09:52:11;;;;;;;0.50;0.50;;;;;;;;;;5127727;27;20207;-59
2022/08/29 09:55:17;;;;;;;0.52;0.52;;;;;;;;;;5122405;27;20225;-58
2022/08/29 09:58:08;;;;;;;0.52;0.52;;;;;;;;;;5131388;27;20235;-58
2022/08/29 10:01:00;;;;;;;0.50;0.50;;;;;;;;;;5134726;27;20216;-58
2022/08/29 10:03:54;;;;;;;0.60;0.60;;;;;;;;;;5132116;27;20673;-58
2022/08/29 10:06:41;;;;;;;0.50;0.50;;;;;;;;;;5127730;28;20229;-58
2022/08/29 10:09:29;;;;;;;0.50;0.50;;;;;;;;;;5127261;27;20282;-59
2022/08/29 10:12:23;;;;;;;0.35;0.35;;;;;;;;;;5131258;27;20612;-58
2022/08/29 10:15:17;;;;;;;0.50;0.50;;;;;;;;;;5135665;27;20239;-58
2022/08/29 10:18:23;;;;;;;0.43;0.43;;;;;;;;;;5131255;27;20593;-59
2022/08/29 10:21:29;;;;;;;0.40;0.40;;;;;;;;;;5139533;27;20200;-59
2022/08/29 10:24:53;;;;;;;0.40;0.40;;;;;;;;;;5138227;27;20283;-59
2022/08/29 10:27:47;;;;;;;1.80;0.50;;;;;;;;;;5134901;27;20699;-59
2022/08/29 10:30:44;;;;;;;0.50;0.50;;;;;;;;;;5129593;27;20576;-59
2022/08/29 10:33:55;;;;;;;0.60;0.60;;;;;;;;;;5130213;27;20589;-58
2022/08/29 10:36:50;;;;;;;0.47;0.43;;;;;;;;;;5134150;27;20205;-58
2022/08/29 10:39:45;;;;;;;0.50;0.50;;;;;;;;;;5126224;27;20213;-58
2022/08/29 10:42:37;;;;;;;0.50;0.50;;;;;;;;;;5139992;27;20215;-58
2022/08/29 10:45:34;;;;;;;0.30;0.30;;;;;;;;;;5130445;27;20248;-59
2022/08/29 10:48:30;;;;;;;0.50;0.50;;;;;;;;;;5135266;27;20207;-61
2022/08/29 10:51:23;;;;;;;0.68;0.57;;;;;;;;;;5122169;27;21135;-58
2022/08/29 10:54:20;;;;;;;0.50;0.50;;;;;;;;;;5129241;27;20236;-58
2022/08/29 10:57:09;;;;;;;0.45;0.45;;;;;;;;;;5134118;27;20304;-58
2022/08/29 11:00:04;;;;;;;0.55;0.55;;;;;;;;;;5137038;27;20202;-58
2022/08/29 11:02:57;;;;;;;0.40;0.40;;;;;;;;;;5133112;27;20201;-58
2022/08/29 11:05:50;;;;;;;0.45;0.45;;;;;;;;;;5135628;27;20232;-59
2022/08/29 11:08:44;;;;;;;0.47;0.47;;;;;;;;;;5132109;27;20357;-58
2022/08/29 11:11:33;;;;;;;0.40;0.40;;;;;;;;;;5138188;27;20284;-58
2022/08/29 11:14:24;;;;;;;0.55;0.55;;;;;;;;;;5138131;27;20892;-60
2022/08/29 11:17:16;;;;;;;0.73;0.73;;;;;;;;;;5123760;27;20220;-58
2022/08/29 11:20:10;;;;;;;0.50;0.45;;;;;;;;;;5131308;27;20848;-58
2022/08/29 11:23:01;;;;;;;0.77;0.70;;;;;;;;;;5128177;27;20250;-59
2022/08/29 11:25:49;;;;;;;0.50;0.50;;;;;;;;;;5143182;27;20211;-59
2022/08/29 11:28:40;;;;;;;0.50;0.50;;;;;;;;;;5129954;27;20676;-59
2022/08/29 11:31:43;;;;;;;0.43;0.43;;;;;;;;;;5136456;27;20209;-59
2022/08/29 11:35:07;;;;;;;0.40;0.40;;;;;;;;;;5130956;27;20228;-59
2022/08/29 11:38:15;;;;;;;0.50;0.50;;;;;;;;;;5133640;27;20200;-59
2022/08/29 11:41:22;;;;;;;0.55;0.55;;;;;;;;;;5132707;27;20205;-59
2022/08/29 11:44:31;;;;;;;0.60;0.60;;;;;;;;;;5134804;27;20201;-59
2022/08/29 11:47:38;;;;;;;0.40;0.40;;;;;;;;;;5128456;27;20217;-59
2022/08/29 11:50:32;;;;;;;0.70;0.70;;;;;;;;;;5130118;27;20576;-60
2022/08/29 11:53:32;;;;;;;0.50;0.50;;;;;;;;;;5134543;27;20212;-59
2022/08/29 11:56:25;;;;;;;1.00;0.52;;;;;;;;;;5135969;27;20551;-59
2022/08/29 11:59:51;;;;;;;0.60;0.60;;;;;;;;;;5130710;27;20205;-59
2022/08/29 12:02:42;;;;;;;0.30;0.30;;;;;;;;;;5131299;27;20645;-59
2022/08/29 12:05:56;;;;;;;0.50;0.50;;;;;;;;;;5133296;27;20225;-59
2022/08/29 12:08:52;;;;;;;0.50;0.50;;;;;;;;;;5134444;27;20233;-59
2022/08/29 12:12:15;;;;;;;0.50;0.50;;;;;;;;;;5133774;27;20330;-59
2022/08/29 12:15:22;;;;;;;0.57;0.57;;;;;;;;;;5133786;27;20243;-59
2022/08/29 12:18:33;;;;;;;0.60;0.60;;;;;;;;;;5131375;27;20224;-59
2022/08/29 12:21:49;;;;;;;0.50;0.50;;;;;;;;;;5129294;27;20216;-59
2022/08/29 12:24:41;;;;;;;0.52;0.52;;;;;;;;;;5133957;27;20909;-59
2022/08/29 12:28:03;;;;;;;0.75;0.63;;;;;;;;;;5130983;27;20234;-59
2022/08/29 12:31:02;;;;;;;0.30;0.30;;;;;;;;;;5037073;28;20294;-59
2022/08/29 12:34:02;;;;;;;0.57;0.57;;;;;;;;;;5127412;27;20620;-59
2022/08/29 12:37:10;;;;;;;0.40;0.40;;;;;;;;;;5129900;27;20692;-59
2022/08/29 12:40:13;;;;;;;0.50;0.50;;;;;;;;;;5131309;27;20259;-59
2022/08/29 12:43:17;;;;;;;0.50;0.50;;;;;;;;;;5134951;27;20212;-59
2022/08/29 12:46:13;;;;;;;0.30;0.30;;;;;;;;;;5132039;27;20261;-59
2022/08/29 12:49:08;;;;;;;0.52;0.52;;;;;;;;;;5132050;27;20208;-59
2022/08/29 12:52:00;;;;;;;0.40;0.40;;;;;;;;;;5130276;27;20288;-59
2022/08/29 12:54:47;;;;;;;0.43;0.43;;;;;;;;;;5125838;27;20228;-58
2022/08/29 12:57:37;;;;;;;0.40;0.40;;;;;;;;;;5137387;27;20235;-59
2022/08/29 13:00:27;;;;;;;0.60;0.60;;;;;;;;;;5129261;27;20231;-58
2022/08/29 13:03:19;;;;;;;0.50;0.50;;;;;;;;;;5129259;27;20296;-59
2022/08/29 13:06:10;;;;;;;0.40;0.40;;;;;;;;;;5129665;27;20299;-60
2022/08/29 13:08:59;;;;;;;0.60;0.60;;;;;;;;;;5130339;27;20232;-59
2022/08/29 13:11:46;;;;;;;0.80;0.77;;;;;;;;;;5126882;27;20199;-60
2022/08/29 13:14:34;;;;;;;0.38;0.38;;;;;;;;;;5135654;27;20227;-60
2022/08/29 13:17:27;;;;;;;0.50;0.50;;;;;;;;;;5127335;27;20617;-59
2022/08/29 13:20:40;;;;;;;0.63;0.63;;;;;;;;;;5129504;27;20212;-59
2022/08/29 13:23:29;;;;;;;0.50;0.50;;;;;;;;;;5130181;27;20203;-59
2022/08/29 13:26:26;;;;;;;0.55;0.55;;;;;;;;;;5132941;27;20202;-60
2022/08/29 13:29:23;;;;;;;0.47;0.47;;;;;;;;;;5130383;27;20575;-59
2022/08/29 13:32:19;;;;;;;0.40;0.40;;;;;;;;;;5123713;27;20237;-59
2022/08/29 13:35:17;;;;;;;0.50;0.50;;;;;;;;;;5129125;27;20658;-60
2022/08/29 13:38:17;;;;;;;0.40;0.40;;;;;;;;;;5125653;27;20573;-59
2022/08/29 13:41:04;;;;;;;1.85;0.60;;;;;;;;;;5127523;27;20558;-59
2022/08/29 13:43:52;;;;;;;1.08;0.60;;;;;;;;;;5125383;27;20208;-59
2022/08/29 13:46:45;;;;;;;0.80;0.80;;;;;;;;;;5130738;27;20269;-59
2022/08/29 13:49:35;;;;;;;0.45;0.45;;;;;;;;;;5126343;27;20293;-59
2022/08/29 13:52:22;;;;;;;0.70;0.70;;;;;;;;;;5133911;27;20238;-59
2022/08/29 13:55:09;;;;;;;0.50;0.50;;;;;;;;;;5130929;27;20220;-58
2022/08/29 13:57:57;;;;;;;0.40;0.40;;;;;;;;;;5138063;27;20212;-59
2022/08/29 14:00:45;;;;;;;0.50;0.50;;;;;;;;;;5130279;27;20648;-59
2022/08/29 14:03:32;;;;;;;0.60;0.60;;;;;;;;;;5132118;27;20263;-59
2022/08/29 14:06:21;;;;;;;0.63;0.63;;;;;;;;;;5128121;27;20688;-59
2022/08/29 14:09:09;;;;;;;1.08;0.40;;;;;;;;;;5140836;27;20638;-59
2022/08/29 14:11:56;;;;;;;0.60;0.60;;;;;;;;;;5130108;27;20242;-59
2022/08/29 14:14:44;;;;;;;0.60;0.60;;;;;;;;;;5135433;27;20200;-59
2022/08/29 14:17:33;;;;;;;0.40;0.40;;;;;;;;;;5131534;27;20211;-59
2022/08/29 14:20:20;;;;;;;0.63;0.63;;;;;;;;;;5139846;27;20240;-59
2022/08/29 14:23:07;;;;;;;0.47;0.47;;;;;;;;;;5138256;27;20212;-59
2022/08/29 14:25:54;;;;;;;0.60;0.60;;;;;;;;;;5127728;28;20198;-59
2022/08/29 14:28:42;;;;;;;0.60;0.60;;;;;;;;;;5122877;28;20205;-59
2022/08/29 14:31:29;;;;;;;0.60;0.60;;;;;;;;;;5134064;27;20278;-59
2022/08/29 14:34:18;;;;;;;0.73;0.70;;;;;;;;;;5132121;27;20238;-59
2022/08/29 14:37:05;;;;;;;0.52;0.52;;;;;;;;;;5133480;27;20216;-59
2022/08/29 14:39:52;;;;;;;0.52;0.52;;;;;;;;;;5136096;27;20200;-59
2022/08/29 14:42:39;;;;;;;0.68;0.68;;;;;;;;;;5134060;27;20210;-59
2022/08/29 14:45:28;;;;;;;1.23;0.65;;;;;;;;;;5131072;27;20481;-59
2022/08/29 14:48:15;;;;;;;0.55;0.55;;;;;;;;;;5129961;28;20198;-59
2022/08/29 14:51:03;;;;;;;0.50;0.50;;;;;;;;;;5138628;27;20745;-58
2022/08/29 14:53:52;;;;;;;0.63;0.63;;;;;;;;;;5136592;27;20231;-58
2022/08/29 14:56:40;;;;;;;0.68;0.68;;;;;;;;;;5135928;27;20259;-58
2022/08/29 14:59:27;;;;;;;0.40;0.40;;;;;;;;;;5125882;27;20213;-59
2022/08/29 15:02:14;;;;;;;0.50;0.50;;;;;;;;;;5138262;27;20199;-59
2022/08/29 15:05:01;;;;;;;0.75;0.75;;;;;;;;;;5135469;27;20205;-59
2022/08/29 15:07:50;;;;;;;0.40;0.40;;;;;;;;;;5140153;27;20742;-58
2022/08/29 15:10:37;;;;;;;0.60;0.60;;;;;;;;;;5137271;27;20240;-58
2022/08/29 15:13:24;;;;;;;0.60;0.60;;;;;;;;;;5140013;27;20208;-58
2022/08/29 15:16:12;;;;;;;0.75;0.75;;;;;;;;;;5135219;27;20572;-58
2022/08/29 15:19:01;;;;;;;0.70;0.70;;;;;;;;;;5135307;27;20235;-58
2022/08/29 15:21:48;;;;;;;0.47;0.47;;;;;;;;;;5134616;27;20201;-58
2022/08/29 15:24:37;;;;;;;0.75;0.50;;;;;;;;;;5138368;27;20211;-58
2022/08/29 15:27:24;;;;;;;0.60;0.60;;;;;;;;;;5134004;27;20235;-58
2022/08/29 15:30:13;;;;;;;0.73;0.73;;;;;;;;;;5141029;27;20212;-58
2022/08/29 15:33:00;;;;;;;0.70;0.70;;;;;;;;;;5134603;27;20292;-58
2022/08/29 15:35:47;;;;;;;0.70;0.70;;;;;;;;;;5135937;27;20224;-58
2022/08/29 15:38:34;;;;;;;1.27;0.60;;;;;;;;;;5130600;27;20571;-58
2022/08/29 15:41:22;;;;;;;0.60;0.60;;;;;;;;;;5132543;27;20205;-59
2022/08/29 15:44:09;;;;;;;0.55;0.55;;;;;;;;;;5140147;27;20328;-58
2022/08/29 15:46:57;;;;;;;0.73;0.55;;;;;;;;;;5131566;27;20671;-59
2022/08/29 15:49:44;;;;;;;0.60;0.60;;;;;;;;;;5135344;27;20333;-58
2022/08/29 15:52:31;;;;;;;0.50;0.50;;;;;;;;;;5130228;27;20204;-58
2022/08/29 15:55:18;;;;;;;0.40;0.40;;;;;;;;;;5133611;27;20205;-58
2022/08/29 15:58:06;;;;;;;0.50;0.50;;;;;;;;;;5132880;27;20292;-58
2022/08/29 16:00:53;;;;;;;0.50;0.50;;;;;;;;;;5129944;27;20212;-58
2022/08/29 16:03:41;;;;;;;0.70;0.70;;;;;;;;;;5129550;27;20209;-58
2022/08/29 16:06:28;;;;;;;0.47;0.47;;;;;;;;;;5130480;27;20704;-58
2022/08/29 16:09:15;;;;;;;0.60;0.60;;;;;;;;;;5127763;27;20212;-59
2022/08/29 16:12:02;;;;;;;0.70;0.70;;;;;;;;;;5130843;27;20578;-59
2022/08/29 16:14:51;;;;;;;0.57;0.55;;;;;;;;;;5130079;27;20825;-57
2022/08/29 16:17:38;;;;;;;1.40;0.63;;;;;;;;;;5133475;27;20589;-58
2022/08/29 16:20:25;;;;;;;0.77;0.77;;;;;;;;;;5130220;27;20201;-58
2022/08/29 16:23:12;;;;;;;0.65;0.65;;;;;;;;;;5134911;27;20640;-58
2022/08/29 16:26:00;;;;;;;0.70;0.70;;;;;;;;;;5127037;27;20680;-58
2022/08/29 16:28:48;;;;;;;0.70;0.60;;;;;;;;;;5130372;27;20228;-59
2022/08/29 16:31:36;;;;;;;0.50;0.50;;;;;;;;;;5131262;27;20201;-58
2022/08/29 16:34:24;;;;;;;0.82;0.82;;;;;;;;;;5130880;27;20216;-59
2022/08/29 16:37:10;;;;;;;1.13;1.00;;;;;;;;;;5131161;27;20223;-59
2022/08/29 16:39:59;;;;;;;2.10;1.95;;;;;;;;;;5137162;27;20208;-59
2022/08/29 16:42:46;;;;;;;2.58;2.38;;;;;;;;;;5127362;27;20245;-60
2022/08/29 16:45:33;;;;;;;3.40;3.10;;;;;;;;;;5134035;27;20283;-58
2022/08/29 16:48:21;;;;;;;3.42;3.22;;;;;;;;;;5136435;27;20200;-59
2022/08/29 16:51:09;;;;;;;3.42;3.22;;;;;;;;;;5131610;27;20205;-58
2022/08/29 16:53:57;;;;;;;3.60;3.30;;;;;;;;;;5130762;27;20205;-59
2022/08/29 16:56:44;;;;;;;3.88;3.58;;;;;;;;;;5141928;27;20228;-59
2022/08/29 16:59:34;;;;;;;3.60;3.38;;;;;;;;;;5133866;27;20702;-59
2022/08/29 17:02:21;;;;;;;4.13;3.70;;;;;;;;;;5142231;27;20208;-58
2022/08/29 17:05:09;;;;;;;3.95;3.60;;;;;;;;;;5133400;27;20689;-58